Time;durP1;ratioP1;P1;durP2;ratioP2;P2;SDS_P1;SDS_P2;PMS_P1;PMS_P2;Temp;Humidity;BMP_temperature;BMP_pressure;BME280_temperature;BME280_humidity;BME280_pressure;Samples;Min_cycle;Max_cycle;Signal;HPM_P1;HPM_P2
2021/11/14 00:01:09;;;;;;;3.67;2.45;;;;;;;;;;5030386;28;20021;-87
2021/11/14 00:03:36;;;;;;;1.98;1.23;;;10.80;88.60;;;;;;5030746;28;20042;-86
2021/11/14 00:06:03;;;;;;;3.05;1.88;;;;;;;;;;5030789;28;20526;-86
2021/11/14 00:08:29;;;;;;;1.77;1.40;;;;;;;;;;5030350;28;20120;-87
2021/11/14 00:10:57;;;;;;;3.13;1.75;;;;;;;;;;5031013;28;20396;-86
2021/11/14 00:13:24;;;;;;;3.20;2.10;;;;;;;;;;5043316;28;20175;-87
2021/11/14 00:15:50;;;;;;;2.33;1.92;;;;;;;;;;5030629;28;20108;-86
2021/11/14 00:18:16;;;;;;;4.18;1.55;;;;;;;;;;5030629;28;20092;-86
2021/11/14 00:20:43;;;;;;;2.53;2.00;;;;;;;;;;5030817;28;20040;-88
2021/11/14 00:23:09;;;;;;;4.03;2.22;;;;;;;;;;5046266;28;20392;-87
2021/11/14 00:25:35;;;;;;;3.72;2.20;;;10.90;89.10;;;;;;5031158;28;20080;-85
2021/11/14 00:28:01;;;;;;;4.40;2.22;;;;;;;;;;5030975;28;20459;-86
2021/11/14 00:30:27;;;;;;;6.70;3.05;;;;;;;;;;5030198;28;20037;-86
2021/11/14 00:32:53;;;;;;;4.28;2.22;;;;;;;;;;5030836;28;20647;-87
2021/11/14 00:35:21;;;;;;;4.38;2.33;;;;;;;;;;5030115;28;20045;-86
2021/11/14 00:37:47;;;;;;;5.00;3.63;;;;;;;;;;5029414;28;20018;-88
2021/11/14 00:40:14;;;;;;;6.20;3.50;;;;;;;;;;5029967;28;20044;-88
2021/11/14 00:42:40;;;;;;;;;;;10.70;89.30;;;;;;5031050;28;20091;-87
2021/11/14 00:45:07;;;;;;;3.72;2.20;;;10.80;89.20;;;;;;5030802;28;19909;-87
2021/11/14 00:47:33;;;;;;;6.57;2.78;;;;;;;;;;5030228;28;20094;-87
2021/11/14 00:49:59;;;;;;;4.15;2.45;;;;;;;;;;5029904;28;20029;-87
2021/11/14 00:52:25;;;;;;;3.17;2.08;;;;;;;;;;5030328;28;20041;-87
2021/11/14 00:54:51;;;;;;;3.38;2.40;;;;;;;;;;5030869;28;20061;-87
2021/11/14 00:57:17;;;;;;;7.93;2.78;;;;;;;;;;5030512;28;20082;-87
2021/11/14 00:59:43;;;;;;;4.38;2.70;;;;;;;;;;5030693;28;20049;-87
2021/11/14 01:02:09;;;;;;;4.70;2.28;;;;;;;;;;5028915;28;20025;-88
2021/11/14 01:04:35;;;;;;;4.00;2.13;;;;;;;;;;5030374;28;20086;-87
2021/11/14 01:07:01;;;;;;;4.40;2.55;;;;;;;;;;5031051;28;20392;-88
2021/11/14 01:09:27;;;;;;;3.22;2.38;;;;;;;;;;5029130;28;20025;-88
2021/11/14 01:11:53;;;;;;;2.45;1.90;;;;;;;;;;5030646;28;20035;-87
2021/11/14 01:14:19;;;;;;;5.80;2.13;;;;;;;;;;5029358;28;20033;-88
2021/11/14 01:16:45;;;;;;;7.18;2.58;;;;;;;;;;5029153;28;20040;-87
2021/11/14 01:19:11;;;;;;;2.55;1.48;;;;;;;;;;5030037;28;20106;-88
2021/11/14 01:21:38;;;;;;;4.63;2.92;;;;;;;;;;5030292;28;20487;-88
2021/11/14 01:24:04;;;;;;;6.10;2.33;;;;;;;;;;5030252;28;20057;-88
2021/11/14 01:26:30;;;;;;;2.67;2.40;;;;;;;;;;5030691;28;20559;-88
2021/11/14 01:28:56;;;;;;;4.32;2.13;;;;;;;;;;5029078;28;20035;-86
2021/11/14 01:31:22;;;;;;;8.80;3.03;;;;;;;;;;5042941;28;20029;-87
2021/11/14 01:33:48;;;;;;;3.78;2.13;;;;;;;;;;5029643;28;20520;-89
2021/11/14 01:36:14;;;;;;;5.03;1.65;;;;;;;;;;5021413;28;20512;-87
2021/11/14 01:38:40;;;;;;;6.40;2.58;;;;;;;;;;5030346;28;20033;-87
2021/11/14 01:41:09;;;;;;;4.70;2.53;;;10.70;90.00;;;;;;5030208;28;20048;-88
2021/11/14 01:43:37;;;;;;;3.25;1.77;;;;;;;;;;5028359;28;20057;-87
2021/11/14 01:46:03;;;;;;;2.58;1.45;;;;;;;;;;5030513;28;20116;-86
2021/11/14 01:48:29;;;;;;;3.40;2.35;;;;;;;;;;5029931;28;20025;-87
2021/11/14 01:50:55;;;;;;;4.20;2.58;;;;;;;;;;5026070;28;20030;-88
2021/11/14 01:53:21;;;;;;;2.08;1.48;;;;;;;;;;5030013;28;20033;-87
2021/11/14 01:55:48;;;;;;;5.93;1.88;;;;;;;;;;5045327;28;20112;-86
2021/11/14 01:58:16;;;;;;;3.13;1.52;;;;;;;;;;5030534;28;20030;-87
2021/11/14 02:00:48;;;;;;;3.47;2.40;;;;;;;;;;5030827;28;20029;-88
2021/11/14 02:03:15;;;;;;;2.65;2.00;;;;;;;;;;5024271;28;20203;-87
2021/11/14 02:05:41;;;;;;;3.20;1.30;;;;;;;;;;5044986;28;20033;-87
2021/11/14 02:08:08;;;;;;;4.15;2.03;;;;;;;;;;5029702;28;20565;-87
2021/11/14 02:10:35;;;;;;;1.67;1.40;;;;;;;;;;5031042;28;20513;-87
2021/11/14 02:13:01;;;;;;;2.70;1.70;;;;;;;;;;5030085;28;20029;-87
2021/11/14 02:15:27;;;;;;;1.85;1.50;;;;;;;;;;5041225;28;20030;-88
2021/11/14 02:17:54;;;;;;;5.55;1.65;;;10.70;90.10;;;;;;5021390;28;20032;-88
2021/11/14 02:20:20;;;;;;;2.53;1.67;;;;;;;;;;5029956;28;20095;-86
2021/11/14 02:22:47;;;;;;;3.28;1.27;;;;;;;;;;5029614;28;20401;-87
2021/11/14 02:25:14;;;;;;;5.13;1.30;;;;;;;;;;5029876;28;20076;-86
2021/11/14 02:27:41;;;;;;;2.63;1.58;;;;;;;;;;5028901;28;20079;-86
2021/11/14 02:30:08;;;;;;;2.42;1.90;;;;;;;;;;5029123;28;20072;-87
2021/11/14 02:32:35;;;;;;;1.35;1.10;;;;;;;;;;5029717;28;20034;-87
2021/11/14 02:35:01;;;;;;;1.67;1.10;;;;;;;;;;5044032;28;20120;-86
2021/11/14 02:37:27;;;;;;;3.95;1.77;;;;;;;;;;5029281;28;20023;-87
2021/11/14 02:39:53;;;;;;;2.58;1.35;;;;;;;;;;5029631;28;20112;-87
2021/11/14 02:42:19;;;;;;;2.92;1.63;;;;;;;;;;5044367;28;20149;-89
2021/11/14 02:44:45;;;;;;;4.47;1.48;;;;;;;;;;5027446;28;20034;-87
2021/11/14 02:47:11;;;;;;;2.60;2.30;;;;;;;;;;5029023;28;20108;-86
2021/11/14 02:49:37;;;;;;;6.00;1.88;;;;;;;;;;5028867;28;20034;-87
2021/11/14 02:52:05;;;;;;;4.60;2.10;;;;;;;;;;5030009;28;20026;-87
2021/11/14 02:54:31;;;;;;;4.32;2.50;;;;;;;;;;5032601;28;20044;-86
2021/11/14 02:56:57;;;;;;;7.30;2.85;;;;;;;;;;5032715;28;20017;-86
2021/11/14 02:59:23;;;;;;;6.53;2.78;;;;;;;;;;5033781;28;20037;-87
2021/11/14 03:01:53;;;;;;;3.28;1.80;;;10.70;90.00;;;;;;5032697;28;20029;-87
2021/11/14 03:04:22;;;;;;;5.28;2.65;;;10.80;90.10;;;;;;5032704;28;20107;-87
2021/11/14 03:06:49;;;;;;;3.13;2.08;;;;;;;;;;5031539;28;20197;-87
2021/11/14 03:09:15;;;;;;;3.35;1.73;;;;;;;;;;5032436;28;20057;-87
2021/11/14 03:11:41;;;;;;;5.28;1.70;;;;;;;;;;5046978;28;20034;-87
2021/11/14 03:14:08;;;;;;;2.88;1.90;;;;;;;;;;5032381;28;20064;-86
2021/11/14 03:16:34;;;;;;;4.05;1.67;;;;;;;;;;5032309;28;20032;-86
2021/11/14 03:19:01;;;;;;;3.63;1.50;;;;;;;;;;5032605;28;20029;-87
2021/11/14 03:21:27;;;;;;;3.47;2.08;;;10.70;90.30;;;;;;5044366;28;20060;-86
2021/11/14 03:23:54;;;;;;;2.15;1.70;;;;;;;;;;5022990;28;20025;-86
2021/11/14 03:26:20;;;;;;;1.47;0.87;;;;;;;;;;5040937;28;20033;-86
2021/11/14 03:28:46;;;;;;;1.30;0.90;;;;;;;;;;5031646;28;20677;-87
2021/11/14 03:31:13;;;;;;;0.60;0.60;;;10.70;89.80;;;;;;5034894;28;20065;-87
2021/11/14 03:33:39;;;;;;;0.65;0.65;;;;;;;;;;5031611;28;20037;-86
2021/11/14 03:36:08;;;;;;;1.17;1.08;;;;;;;;;;5032030;28;20034;-87
2021/11/14 03:38:48;;;;;;;2.58;1.90;;;;;;;;;;5031733;28;20500;-87
2021/11/14 03:41:17;;;;;;;3.92;1.63;;;10.80;89.90;;;;;;5046909;28;20034;-87
2021/11/14 03:43:43;;;;;;;7.47;2.17;;;;;;;;;;5031499;28;20049;-88
2021/11/14 03:46:09;;;;;;;4.05;2.33;;;;;;;;;;5032196;28;20057;-87
2021/11/14 03:48:37;;;;;;;8.07;2.75;;;;;;;;;;5031197;28;20546;-86
2021/11/14 03:51:03;;;;;;;2.97;1.77;;;;;;;;;;5031406;28;20116;-87
2021/11/14 03:53:29;;;;;;;2.90;1.85;;;;;;;;;;5029428;28;20034;-86
2021/11/14 03:55:55;;;;;;;2.80;1.88;;;;;;;;;;5046913;28;20026;-87
2021/11/14 03:58:21;;;;;;;2.72;2.10;;;;;;;;;;5027544;28;20033;-86
2021/11/14 04:00:50;;;;;;;2.17;1.65;;;;;;;;;;5030726;28;20426;-86
2021/11/14 04:03:16;;;;;;;4.18;1.85;;;;;;;;;;5030818;28;20488;-86
2021/11/14 04:05:44;;;;;;;3.25;1.60;;;;;;;;;;5046843;28;20113;-88
2021/11/14 04:08:13;;;;;;;3.22;1.58;;;;;;;;;;5031525;28;20032;-87
2021/11/14 04:10:40;;;;;;;3.88;2.30;;;10.90;89.30;;;;;;5030852;28;20562;-88
2021/11/14 04:13:06;;;;;;;2.38;1.50;;;;;;;;;;5031518;28;20037;-86
2021/11/14 04:15:32;;;;;;;2.33;1.70;;;;;;;;;;5030740;28;20380;-88
2021/11/14 04:17:58;;;;;;;3.22;2.00;;;;;;;;;;5032108;28;20022;-87
2021/11/14 04:20:27;;;;;;;5.20;1.83;;;10.80;90.10;;;;;;5046352;28;20574;-87
2021/11/14 04:22:53;;;;;;;1.35;1.20;;;;;;;;;;5046254;28;20040;-87
2021/11/14 04:25:20;;;;;;;3.35;1.85;;;;;;;;;;5030373;28;20025;-88
2021/11/14 04:27:46;;;;;;;4.95;1.77;;;;;;;;;;5045714;28;20040;-87
2021/11/14 04:30:12;;;;;;;2.47;0.90;;;;;;;;;;5044968;28;20523;-87
2021/11/14 04:32:38;;;;;;;3.95;1.45;;;;;;;;;;5031046;28;20034;-88
2021/11/14 04:35:05;;;;;;;2.47;1.40;;;;;;;;;;5030164;28;20037;-87
2021/11/14 04:37:31;;;;;;;2.20;2.03;;;;;;;;;;5043398;28;20025;-85
2021/11/14 04:39:57;;;;;;;1.40;0.98;;;;;;;;;;5030052;28;20444;-87
2021/11/14 04:42:23;;;;;;;1.45;1.10;;;;;;;;;;5030012;28;20048;-87
2021/11/14 04:44:49;;;;;;;1.50;0.98;;;;;;;;;;5030423;28;20116;-87
2021/11/14 04:47:15;;;;;;;2.08;1.63;;;;;;;;;;5030459;28;20127;-86
2021/11/14 04:49:41;;;;;;;3.08;2.42;;;;;;;;;;5030142;28;20026;-87
2021/11/14 04:52:08;;;;;;;1.77;1.45;;;;;;;;;;5031441;28;20044;-87
2021/11/14 04:54:34;;;;;;;3.13;1.85;;;;;;;;;;5030325;28;20530;-86
2021/11/14 04:57:00;;;;;;;4.43;2.70;;;;;;;;;;5041874;28;20036;-86
2021/11/14 04:59:26;;;;;;;3.38;2.03;;;;;;;;;;5019028;28;20113;-87
2021/11/14 05:01:52;;;;;;;4.30;1.95;;;;;;;;;;5030134;28;20033;-87
2021/11/14 05:04:19;;;;;;;11.45;4.45;;;;;;;;;;5029342;28;20026;-87
2021/11/14 05:06:45;;;;;;;4.22;2.17;;;;;;;;;;5045429;28;20036;-87
2021/11/14 05:09:11;;;;;;;2.63;1.60;;;;;;;;;;5030012;28;20032;-86
2021/11/14 05:11:37;;;;;;;1.75;1.25;;;;;;;;;;5026270;28;20455;-87
2021/11/14 05:14:04;;;;;;;1.88;1.13;;;;;;;;;;5029775;28;20065;-85
2021/11/14 05:16:30;;;;;;;2.15;1.55;;;;;;;;;;5042153;28;20032;-86
2021/11/14 05:18:56;;;;;;;3.95;1.80;;;;;;;;;;5025797;28;20117;-86
2021/11/14 05:21:22;;;;;;;2.85;1.42;;;;;;;;;;5026150;28;20030;-86
2021/11/14 05:23:48;;;;;;;3.42;1.63;;;;;;;;;;5029491;28;20030;-87
2021/11/14 05:26:14;;;;;;;2.92;1.45;;;;;;;;;;5029719;28;20117;-86
2021/11/14 05:28:40;;;;;;;2.25;1.27;;;;;;;;;;5029091;28;20029;-86
2021/11/14 05:31:06;;;;;;;1.50;1.10;;;;;;;;;;5029013;28;20531;-86
2021/11/14 05:33:32;;;;;;;1.92;1.30;;;;;;;;;;5029150;28;20522;-88
2021/11/14 05:35:58;;;;;;;1.70;1.50;;;;;;;;;;5032717;28;20017;-88
2021/11/14 05:38:25;;;;;;;1.60;1.40;;;;;;;;;;5028575;28;20029;-86
2021/11/14 05:40:51;;;;;;;2.63;1.95;;;;;;;;;;5029520;28;20022;-86
2021/11/14 05:43:17;;;;;;;2.38;1.60;;;;;;;;;;5030009;28;20578;-87
2021/11/14 05:45:44;;;;;;;3.20;1.73;;;;;;;;;;5029281;28;20045;-87
2021/11/14 05:48:10;;;;;;;1.08;1.08;;;;;;;;;;5028595;28;20025;-87
2021/11/14 05:50:37;;;;;;;6.88;1.77;;;;;;;;;;5028833;28;20454;-86
2021/11/14 05:53:03;;;;;;;1.75;1.38;;;;;;;;;;5043818;28;20514;-88
2021/11/14 05:55:29;;;;;;;2.92;1.38;;;;;;;;;;5029620;28;20029;-86
2021/11/14 05:57:58;;;;;;;14.25;5.00;;;;;;;;;;5029761;28;20099;-86
2021/11/14 06:05:52;;;;;;;25.45;10.18;;;10.50;87.10;;;;;;5011056;28;20468;-87
2021/11/14 06:08:21;;;;;;;10.87;7.23;;;;;;;;;;5008075;28;20116;-87
2021/11/14 06:10:51;;;;;;;3.75;2.83;;;;;;;;;;5023826;28;20037;-87
2021/11/14 06:13:19;;;;;;;5.50;2.53;;;;;;;;;;5012524;28;20048;-87
2021/11/14 06:15:45;;;;;;;9.20;2.75;;;;;;;;;;5017773;28;20159;-87
2021/11/14 06:18:11;;;;;;;6.40;3.38;;;;;;;;;;5018422;28;20033;-86
2021/11/14 06:20:37;;;;;;;22.52;8.60;;;;;;;;;;4999756;28;20732;-86
2021/11/14 06:23:04;;;;;;;17.33;6.65;;;;;;;;;;5022889;28;20042;-87
2021/11/14 06:25:30;;;;;;;24.05;9.95;;;;;;;;;;5026062;28;20033;-88
2021/11/14 06:27:56;;;;;;;18.77;6.65;;;;;;;;;;5015030;28;20473;-86
2021/11/14 06:30:22;;;;;;;11.55;5.00;;;;;;;;;;4998633;28;20466;-86
2021/11/14 06:32:48;;;;;;;16.30;5.55;;;;;;;;;;5015095;28;20041;-86
2021/11/14 06:35:14;;;;;;;7.10;4.03;;;;;;;;;;5003997;28;20591;-86
2021/11/14 06:37:40;;;;;;;6.35;3.03;;;;;;;;;;5012448;28;20601;-86
2021/11/14 06:40:06;;;;;;;7.57;3.80;;;;;;;;;;5015518;28;20037;-87
2021/11/14 06:42:32;;;;;;;5.50;2.67;;;;;;;;;;5025490;28;20049;-88
2021/11/14 06:44:58;;;;;;;5.38;2.55;;;;;;;;;;5048296;28;20025;-89
2021/11/14 06:47:24;;;;;;;2.42;1.55;;;;;;;;;;5033040;28;20034;-88
2021/11/14 06:49:52;;;;;;;2.88;1.77;;;;;;;;;;5032493;28;20036;-86
2021/11/14 06:52:18;;;;;;;2.38;1.52;;;;;;;;;;5033621;28;20032;-87
2021/11/14 06:54:44;;;;;;;3.05;1.45;;;;;;;;;;5031858;28;20048;-87
2021/11/14 06:57:10;;;;;;;3.70;2.10;;;;;;;;;;5031985;28;20104;-87
2021/11/14 06:59:38;;;;;;;5.68;1.95;;;;;;;;;;5032355;28;20033;-86
2021/11/14 07:02:06;;;;;;;1.73;1.50;;;10.20;87.00;;;;;;5048020;28;20091;-87
2021/11/14 07:04:32;;;;;;;3.85;3.20;;;;;;;;;;5031497;28;20108;-88
2021/11/14 07:06:58;;;;;;;2.42;2.00;;;;;;;;;;5032348;28;20032;-87
2021/11/14 07:09:24;;;;;;;4.43;2.35;;;;;;;;;;5031547;28;20040;-86
2021/11/14 07:11:53;;;;;;;2.40;2.20;;;;;;;;;;5031643;28;20021;-86
2021/11/14 07:14:19;;;;;;;4.88;2.83;;;;;;;;;;5031139;28;20091;-86
2021/11/14 07:16:45;;;;;;;4.07;2.88;;;;;;;;;;5029842;28;20037;-86
2021/11/14 07:19:11;;;;;;;4.75;2.53;;;;;;;;;;5027529;28;20060;-86
2021/11/14 07:21:37;;;;;;;6.80;2.53;;;;;;;;;;5031210;28;20412;-87
2021/11/14 07:24:03;;;;;;;9.30;2.10;;;;;;;;;;5045467;28;20034;-84
2021/11/14 07:26:29;;;;;;;2.20;2.00;;;;;;;;;;5028465;28;20022;-84
2021/11/14 07:28:55;;;;;;;2.90;1.70;;;;;;;;;;5043348;28;20459;-84
2021/11/14 07:31:21;;;;;;;2.83;1.73;;;;;;;;;;5044218;28;20053;-84
2021/11/14 07:33:47;;;;;;;4.28;1.92;;;;;;;;;;5028167;28;20051;-84
2021/11/14 07:36:13;;;;;;;2.67;1.83;;;;;;;;;;5029343;28;20116;-84
2021/11/14 07:38:39;;;;;;;17.38;8.38;;;;;;;;;;5027429;28;20036;-84
2021/11/14 07:41:05;;;;;;;8.70;4.85;;;;;;;;;;5027380;28;20033;-84
2021/11/14 07:43:31;;;;;;;7.57;3.25;;;;;;;;;;5025979;28;20049;-86
2021/11/14 07:45:58;;;;;;;4.28;2.80;;;;;;;;;;5029797;28;20029;-85
2021/11/14 07:48:24;;;;;;;5.97;2.70;;;;;;;;;;5026295;28;20060;-84
2021/11/14 07:50:54;;;;;;;6.82;2.28;;;;;;;;;;5026076;28;20048;-84
2021/11/14 07:53:20;;;;;;;4.05;2.15;;;;;;;;;;5027573;28;20056;-84
2021/11/14 07:55:46;;;;;;;2.45;1.15;;;;;;;;;;5027267;28;20113;-83
2021/11/14 07:58:12;;;;;;;3.70;2.20;;;;;;;;;;5028282;28;20108;-84
2021/11/14 08:00:38;;;;;;;3.88;1.77;;;;;;;;;;5024502;28;20053;-84
2021/11/14 08:03:04;;;;;;;4.45;1.83;;;;;;;;;;5027398;28;20029;-88
2021/11/14 08:05:30;;;;;;;4.50;1.92;;;;;;;;;;5029398;28;20048;-87
2021/11/14 08:07:57;;;;;;;3.95;2.33;;;10.80;85.60;;;;;;5022793;28;20101;-85
2021/11/14 08:10:24;;;;;;;2.80;1.80;;;;;;;;;;5028017;28;20057;-86
2021/11/14 08:12:50;;;;;;;5.30;2.38;;;;;;;;;;5039913;28;20268;-85
2021/11/14 08:15:17;;;;;;;3.58;2.35;;;;;;;;;;5023603;28;20041;-85
2021/11/14 08:17:43;;;;;;;;;;;;;;;;;;5024758;28;20983;-85
2021/11/14 08:20:10;;;;;;;5.80;3.17;;;;;;;;;;5027325;28;19948;-86
2021/11/14 08:22:36;;;;;;;8.63;4.03;;;;;;;;;;5025498;28;20042;-84
2021/11/14 08:25:02;;;;;;;6.82;4.63;;;;;;;;;;5028077;28;20025;-86
2021/11/14 08:27:30;;;;;;;8.82;3.65;;;;;;;;;;5026947;28;20056;-86
2021/11/14 08:29:57;;;;;;;6.47;4.57;;;;;;;;;;5023245;28;20061;-86
2021/11/14 08:32:23;;;;;;;9.15;4.15;;;;;;;;;;5022188;28;20034;-86
2021/11/14 08:34:49;;;;;;;5.88;2.97;;;;;;;;;;5025340;28;20043;-85
2021/11/14 08:37:15;;;;;;;7.32;3.50;;;;;;;;;;5027890;28;20021;-85
2021/11/14 08:39:41;;;;;;;5.75;2.92;;;;;;;;;;5026108;28;20032;-85
2021/11/14 08:42:07;;;;;;;6.53;3.50;;;;;;;;;;5022351;28;20042;-85
2021/11/14 08:44:33;;;;;;;5.82;2.83;;;;;;;;;;5022172;28;20033;-85
2021/11/14 08:47:00;;;;;;;4.32;2.65;;;;;;;;;;5024286;28;20079;-85
2021/11/14 08:49:26;;;;;;;5.28;3.40;;;;;;;;;;5023506;28;20569;-85
2021/11/14 08:51:52;;;;;;;4.40;2.30;;;;;;;;;;5012330;28;20026;-85
2021/11/14 08:54:18;;;;;;;7.20;2.75;;;;;;;;;;5015341;28;20129;-86
2021/11/14 08:56:45;;;;;;;5.97;2.85;;;;;;;;;;5020040;28;20072;-85
2021/11/14 08:59:11;;;;;;;5.25;2.45;;;;;;;;;;5023914;28;20079;-85
2021/11/14 09:01:37;;;;;;;8.15;2.95;;;;;;;;;;5041094;28;20022;-86
2021/11/14 09:04:04;;;;;;;4.50;2.57;;;;;;;;;;5023482;28;20026;-85
2021/11/14 09:06:30;;;;;;;8.15;4.35;;;;;;;;;;5023536;28;20523;-85
2021/11/14 09:08:56;;;;;;;5.55;3.97;;;;;;;;;;5024814;28;20038;-85
2021/11/14 09:11:22;;;;;;;6.95;4.25;;;;;;;;;;5027844;28;20806;-85
2021/11/14 09:13:49;;;;;;;7.25;4.22;;;;;;;;;;5042861;28;20504;-85
2021/11/14 09:16:15;;;;;;;9.93;4.18;;;;;;;;;;5027406;28;20060;-86
2021/11/14 09:18:41;;;;;;;6.60;4.43;;;;;;;;;;5017527;28;20170;-85
2021/11/14 09:21:08;;;;;;;9.07;4.50;;;;;;;;;;5027280;28;20064;-85
2021/11/14 09:23:34;;;;;;;9.80;4.82;;;;;;;;;;5027059;28;20057;-85
2021/11/14 09:26:00;;;;;;;3.55;2.67;;;;;;;;;;5019104;28;20041;-86
2021/11/14 09:28:27;;;;;;;7.13;3.58;;;;;;;;;;5043433;28;20033;-85
2021/11/14 09:30:53;;;;;;;11.25;5.05;;;;;;;;;;5028532;28;20025;-85
2021/11/14 09:33:20;;;;;;;10.13;4.88;;;;;;;;;;5040384;28;20037;-86
2021/11/14 09:35:47;;;;;;;7.25;3.35;;;12.20;83.10;;;;;;5027484;28;20068;-86
2021/11/14 09:38:14;;;;;;;2.85;2.08;;;;;;;;;;5027288;28;20033;-85
2021/11/14 09:40:40;;;;;;;4.40;2.17;;;;;;;;;;5026569;28;20029;-85
2021/11/14 09:43:06;;;;;;;4.43;1.70;;;;;;;;;;5028874;28;20140;-86
2021/11/14 09:45:33;;;;;;;4.07;2.70;;;;;;;;;;5028020;28;20436;-85
2021/11/14 09:47:59;;;;;;;2.60;2.22;;;;;;;;;;5023816;28;20380;-85
2021/11/14 09:50:25;;;;;;;3.67;2.22;;;;;;;;;;5027160;28;20041;-86
2021/11/14 09:52:53;;;;;;;2.97;1.38;;;;;;;;;;5026979;28;20492;-85
2021/11/14 09:55:19;;;;;;;3.85;2.50;;;;;;;;;;5027533;28;20041;-86
2021/11/14 09:57:47;;;;;;;7.25;3.00;;;;;;;;;;5027022;28;20087;-85
2021/11/14 10:00:14;;;;;;;3.45;1.30;;;;;;;;;;5042444;28;20040;-86
2021/11/14 10:02:40;;;;;;;2.65;1.63;;;;;;;;;;5026885;28;20037;-86
2021/11/14 10:05:08;;;;;;;2.80;1.80;;;12.00;82.60;;;;;;5031047;28;20113;-86
2021/11/14 10:07:36;;;;;;;3.88;1.20;;;;;;;;;;5031466;28;20033;-85
2021/11/14 10:10:03;;;;;;;1.73;1.02;;;;;;;;;;5032021;28;20021;-85
2021/11/14 10:12:36;;;;;;;1.58;1.30;;;;;;;;;;5046703;28;20033;-85
2021/11/14 10:15:10;;;;;;;1.42;1.15;;;;;;;;;;5031566;28;20068;-86
2021/11/14 10:17:37;;;;;;;2.15;1.40;;;;;;;;;;5030314;28;20040;-85
2021/11/14 10:20:15;;;;;;;5.17;2.67;;;;;;;;;;5031492;28;20076;-85
2021/11/14 10:22:43;;;;;;;1.77;1.42;;;;;;;;;;5031875;28;20112;-85
2021/11/14 10:25:10;;;;;;;1.52;1.40;;;;;;;;;;5031281;28;20063;-86
2021/11/14 10:27:36;;;;;;;3.08;1.85;;;;;;;;;;5031411;28;20072;-86
2021/11/14 10:30:02;;;;;;;2.42;1.38;;;;;;;;;;5031547;28;20581;-85
2021/11/14 10:32:29;;;;;;;3.42;2.35;;;;;;;;;;5030139;28;20476;-84
2021/11/14 10:34:58;;;;;;;2.67;1.30;;;;;;;;;;5046337;28;20677;-85
2021/11/14 10:37:25;;;;;;;3.15;2.42;;;;;;;;;;5013341;28;20030;-86
2021/11/14 10:39:55;;;;;;;1.00;0.80;;;;;;;;;;5030978;28;20041;-85
2021/11/14 10:42:24;;;;;;;2.85;1.25;;;;;;;;;;5031070;28;20055;-86
2021/11/14 10:44:52;;;;;;;1.73;1.50;;;12.10;81.00;;;;;;5031329;28;20098;-85
2021/11/14 10:47:22;;;;;;;2.22;1.50;;;;;;;;;;5029162;28;20029;-85
2021/11/14 10:49:51;;;;;;;4.85;2.55;;;12.10;82.30;;;;;;5030573;28;20120;-85
2021/11/14 10:52:18;;;;;;;2.75;1.55;;;;;;;;;;5029903;28;20029;-86
2021/11/14 10:54:44;;;;;;;1.50;1.30;;;;;;;;;;5045140;28;20041;-85
2021/11/14 10:57:10;;;;;;;3.00;1.10;;;;;;;;;;5043638;28;20045;-85
2021/11/14 10:59:46;;;;;;;1.00;0.90;;;;;;;;;;5045224;28;20064;-86
2021/11/14 11:02:14;;;;;;;3.15;1.42;;;;;;;;;;5029813;28;20033;-85
2021/11/14 11:04:40;;;;;;;10.65;2.47;;;;;;;;;;5029813;28;20575;-86
2021/11/14 11:07:06;;;;;;;7.25;2.70;;;;;;;;;;5031009;28;20036;-85
2021/11/14 11:09:33;;;;;;;2.95;1.17;;;;;;;;;;5029655;28;20025;-85
2021/11/14 11:12:02;;;;;;;1.30;0.80;;;;;;;;;;5028838;28;20033;-86
2021/11/14 11:14:28;;;;;;;0.98;0.90;;;;;;;;;;5029513;28;20041;-85
2021/11/14 11:16:54;;;;;;;2.38;1.50;;;;;;;;;;5030064;28;20095;-85
2021/11/14 11:19:24;;;;;;;1.23;1.02;;;;;;;;;;5031231;28;20029;-86
2021/11/14 11:21:50;;;;;;;1.65;1.55;;;;;;;;;;5029700;28;20120;-85
2021/11/14 11:24:19;;;;;;;1.38;1.27;;;;;;;;;;5029009;28;20033;-86
2021/11/14 11:27:06;;;;;;;0.95;0.82;;;12.30;82.90;;;;;;5029329;28;20511;-85
2021/11/14 11:29:35;;;;;;;2.88;0.73;;;;;;;;;;5028379;28;20029;-86
2021/11/14 11:32:02;;;;;;;1.25;0.82;;;;;;;;;;5045681;28;20052;-85
2021/11/14 11:34:28;;;;;;;1.20;1.10;;;;;;;;;;5042648;28;20393;-85
2021/11/14 11:36:57;;;;;;;2.33;1.10;;;12.40;83.20;;;;;;5029686;28;20068;-85
2021/11/14 11:39:24;;;;;;;0.68;0.60;;;12.50;81.30;;;;;;5044479;28;20037;-85
2021/11/14 11:41:51;;;;;;;0.40;0.40;;;12.60;80.90;;;;;;5028015;28;20495;-85
2021/11/14 11:44:18;;;;;;;0.63;0.63;;;12.60;80.80;;;;;;5028892;28;20034;-85
2021/11/14 11:46:46;;;;;;;1.38;0.68;;;;;;;;;;5028496;28;20534;-86
2021/11/14 11:49:18;;;;;;;1.00;0.70;;;;;;;;;;5042490;28;20037;-85
2021/11/14 11:51:49;;;;;;;0.93;0.47;;;;;;;;;;5026209;28;20033;-85
2021/11/14 11:54:20;;;;;;;0.60;0.60;;;;;;;;;;5031025;28;20531;-86
2021/11/14 11:57:09;;;;;;;0.60;0.60;;;;;;;;;;5028609;28;20028;-85
2021/11/14 11:59:46;;;;;;;1.10;1.00;;;;;;;;;;5025425;28;20563;-84
2021/11/14 12:02:12;;;;;;;0.82;0.80;;;;;;;;;;5026718;28;20029;-85
2021/11/14 12:04:52;;;;;;;0.90;0.80;;;;;;;;;;5027550;28;20021;-86
2021/11/14 12:07:20;;;;;;;1.15;0.60;;;;;;;;;;5028972;28;20082;-84
2021/11/14 12:09:51;;;;;;;2.80;0.73;;;;;;;;;;5028067;28;20798;-85
2021/11/14 12:12:23;;;;;;;0.60;0.60;;;;;;;;;;5028264;28;20041;-85
2021/11/14 12:15:12;;;;;;;0.90;0.57;;;13.00;76.10;;;;;;5024614;28;20128;-84
2021/11/14 12:18:01;;;;;;;0.80;0.80;;;;;;;;;;5026697;28;20080;-85
2021/11/14 12:20:29;;;;;;;0.90;0.80;;;;;;;;;;5015476;28;20105;-85
2021/11/14 12:22:57;;;;;;;0.40;0.40;;;;;;;;;;5027183;28;20073;-84
2021/11/14 12:25:27;;;;;;;0.73;0.70;;;;;;;;;;5029493;28;20108;-86
2021/11/14 12:27:57;;;;;;;0.68;0.60;;;;;;;;;;5037708;28;20502;-85
2021/11/14 12:30:23;;;;;;;0.88;0.70;;;;;;;;;;5026296;28;20519;-85
2021/11/14 12:32:51;;;;;;;1.13;0.95;;;;;;;;;;5044365;28;20040;-85
2021/11/14 12:35:22;;;;;;;3.03;1.20;;;;;;;;;;5027317;28;20045;-85
2021/11/14 12:37:49;;;;;;;1.77;1.10;;;;;;;;;;5027863;28;20037;-84
2021/11/14 12:40:20;;;;;;;1.35;1.25;;;;;;;;;;5023904;28;20029;-85
2021/11/14 12:42:46;;;;;;;2.45;1.20;;;;;;;;;;5025452;28;20546;-86
2021/11/14 12:45:12;;;;;;;4.00;1.20;;;;;;;;;;5040289;28;21126;-85
2021/11/14 12:47:42;;;;;;;1.92;1.58;;;12.70;80.60;;;;;;5017949;28;20022;-86
2021/11/14 12:50:08;;;;;;;0.93;0.63;;;;;;;;;;5028603;28;20104;-86
2021/11/14 12:52:39;;;;;;;0.50;0.50;;;12.40;79.90;;;;;;5029210;28;20572;-86
2021/11/14 12:55:19;;;;;;;0.60;0.60;;;12.40;81.20;;;;;;5041016;28;20104;-85
2021/11/14 12:57:52;;;;;;;2.08;0.68;;;;;;;;;;5026553;28;20033;-85
2021/11/14 13:00:41;;;;;;;0.50;0.50;;;12.20;83.10;;;;;;5027436;28;20021;-86
2021/11/14 13:03:19;;;;;;;0.60;0.60;;;;;;;;;;5028311;28;20664;-86
2021/11/14 13:05:47;;;;;;;0.50;0.50;;;12.00;81.40;;;;;;5025798;28;20029;-84
2021/11/14 13:08:45;;;;;;;0.40;0.40;;;11.90;80.90;;;;;;5028381;28;20040;-86
2021/11/14 13:11:25;;;;;;;0.40;0.40;;;;;;;;;;4970514;28;20046;-85
2021/11/14 13:13:54;;;;;;;0.43;0.43;;;;;;;;;;4970411;28;20529;-85
2021/11/14 13:16:24;;;;;;;1.00;0.70;;;;;;;;;;4986831;28;20064;-85
2021/11/14 13:18:51;;;;;;;0.60;0.60;;;;;;;;;;4986225;28;20030;-86
2021/11/14 13:21:20;;;;;;;6.43;1.80;;;11.60;83.90;;;;;;4985424;28;20428;-87
2021/11/14 13:23:55;;;;;;;4.55;1.50;;;;;;;;;;4986697;28;20464;-86
2021/11/14 13:26:21;;;;;;;2.70;1.58;;;;;;;;;;4970420;28;20026;-84
2021/11/14 13:28:47;;;;;;;3.38;1.92;;;;;;;;;;4970519;28;20557;-86
2021/11/14 13:31:23;;;;;;;3.35;1.35;;;;;;;;;;4987361;28;20030;-85
2021/11/14 13:34:02;;;;;;;1.95;1.20;;;;;;;;;;4986163;28;20088;-85
2021/11/14 13:36:30;;;;;;;5.50;2.42;;;11.90;83.40;;;;;;4977901;28;20420;-86
2021/11/14 13:38:56;;;;;;;;;;;12.00;83.30;;;;;;4986742;28;20122;-85
2021/11/14 13:41:22;;;;;;;4.32;2.10;;;;;;;;;;4986679;28;20489;-85
2021/11/14 13:43:59;;;;;;;2.58;1.60;;;;;;;;;;4969852;28;20591;-86
2021/11/14 13:46:26;;;;;;;1.45;0.73;;;;;;;;;;5001694;28;20042;-86
2021/11/14 13:48:55;;;;;;;2.90;1.20;;;11.90;85.20;;;;;;5026001;28;21370;-87
2021/11/14 13:51:21;;;;;;;1.38;1.05;;;;;;;;;;5027547;28;20121;-86
2021/11/14 13:53:48;;;;;;;2.05;1.10;;;;;;;;;;5028328;28;20116;-85
2021/11/14 13:56:14;;;;;;;0.77;0.77;;;;;;;;;;5042358;28;20385;-86
2021/11/14 13:58:51;;;;;;;2.97;0.93;;;;;;;;;;5032220;28;20028;-86
2021/11/14 14:01:21;;;;;;;0.95;0.63;;;;;;;;;;5028368;28;20044;-86
2021/11/14 14:03:49;;;;;;;0.95;0.60;;;;;;;;;;5040395;28;20026;-86
2021/11/14 14:06:16;;;;;;;0.38;0.38;;;;;;;;;;5022597;28;20029;-86
2021/11/14 14:08:42;;;;;;;1.13;0.70;;;;;;;;;;5043734;28;20032;-87
2021/11/14 14:11:10;;;;;;;1.05;0.70;;;;;;;;;;5027229;28;20416;-86
2021/11/14 14:13:48;;;;;;;2.88;0.70;;;12.30;83.80;;;;;;5027698;28;20034;-86
2021/11/14 14:16:14;;;;;;;1.17;0.80;;;;;;;;;;5025895;28;20399;-85
2021/11/14 14:18:40;;;;;;;0.50;0.50;;;;;;;;;;5042389;28;20033;-85
2021/11/14 14:21:07;;;;;;;1.52;0.90;;;;;;;;;;5027881;28;20037;-86
2021/11/14 14:23:37;;;;;;;1.73;1.00;;;;;;;;;;5045169;28;20052;-87
2021/11/14 14:26:03;;;;;;;0.73;0.60;;;;;;;;;;5029760;28;20021;-88
2021/11/14 14:28:30;;;;;;;0.95;0.70;;;;;;;;;;5041693;28;20033;-87
2021/11/14 14:30:57;;;;;;;1.33;0.80;;;;;;;;;;5030017;28;20083;-87
2021/11/14 14:33:24;;;;;;;1.23;0.60;;;;;;;;;;5029600;28;20635;-88
2021/11/14 14:36:00;;;;;;;2.95;1.02;;;;;;;;;;5035046;28;20038;-87